sensor_id;sensor_type;location;lat;lon;timestamp;temperature;humidity
52769;DHT22;40471;44.534;18.644;2023-11-19T00:01:05;2.50;99.90
52769;DHT22;40471;44.534;18.644;2023-11-19T00:03:31;2.40;99.90
52769;DHT22;40471;44.534;18.644;2023-11-19T00:05:59;2.40;99.90
52769;DHT22;40471;44.534;18.644;2023-11-19T00:08:24;2.40;99.90
52769;DHT22;40471;44.534;18.644;2023-11-19T00:10:50;2.40;99.90
52769;DHT22;40471;44.534;18.644;2023-11-19T00:13:16;2.40;99.90
52769;DHT22;40471;44.534;18.644;2023-11-19T00:15:42;2.30;99.90
52769;DHT22;40471;44.534;18.644;2023-11-19T00:18:08;2.30;99.90
52769;DHT22;40471;44.534;18.644;2023-11-19T00:37:25;2.20;99.90
52769;DHT22;40471;44.534;18.644;2023-11-19T00:39:51;2.20;99.90
52769;DHT22;40471;44.534;18.644;2023-11-19T00:42:17;2.20;99.90
52769;DHT22;40471;44.534;18.644;2023-11-19T00:44:43;2.20;99.90
52769;DHT22;40471;44.534;18.644;2023-11-19T00:47:09;2.10;99.90
52769;DHT22;40471;44.534;18.644;2023-11-19T00:49:35;2.10;99.90
52769;DHT22;40471;44.534;18.644;2023-11-19T00:52:01;2.00;99.90
52769;DHT22;40471;44.534;18.644;2023-11-19T00:54:27;2.00;99.90
52769;DHT22;40471;44.534;18.644;2023-11-19T00:56:53;2.00;99.90
52769;DHT22;40471;44.534;18.644;2023-11-19T01:16:10;2.10;99.90
52769;DHT22;40471;44.534;18.644;2023-11-19T01:18:35;2.10;99.90
52769;DHT22;40471;44.534;18.644;2023-11-19T01:21:01;2.00;99.90
52769;DHT22;40471;44.534;18.644;2023-11-19T01:23:27;2.00;99.90
52769;DHT22;40471;44.534;18.644;2023-11-19T01:25:53;2.00;99.90
52769;DHT22;40471;44.534;18.644;2023-11-19T01:28:18;2.00;99.90
52769;DHT22;40471;44.534;18.644;2023-11-19T01:30:44;1.90;99.90
52769;DHT22;40471;44.534;18.644;2023-11-19T01:33:10;1.90;99.90
52769;DHT22;40471;44.534;18.644;2023-11-19T01:52:27;1.60;99.90
52769;DHT22;40471;44.534;18.644;2023-11-19T01:54:54;1.80;99.90
52769;DHT22;40471;44.534;18.644;2023-11-19T01:57:22;1.80;99.90
52769;DHT22;40471;44.534;18.644;2023-11-19T01:59:50;1.80;99.90
52769;DHT22;40471;44.534;18.644;2023-11-19T02:02:16;1.90;99.90
52769;DHT22;40471;44.534;18.644;2023-11-19T02:04:47;1.90;99.90
52769;DHT22;40471;44.534;18.644;2023-11-19T02:07:14;1.80;99.90
52769;DHT22;40471;44.534;18.644;2023-11-19T02:09:43;1.80;99.90
52769;DHT22;40471;44.534;18.644;2023-11-19T02:12:09;1.90;99.90
52769;DHT22;40471;44.534;18.644;2023-11-19T02:31:27;1.80;99.90
52769;DHT22;40471;44.534;18.644;2023-11-19T02:33:53;1.80;99.90
52769;DHT22;40471;44.534;18.644;2023-11-19T02:36:18;1.80;99.90
52769;DHT22;40471;44.534;18.644;2023-11-19T02:38:44;1.80;99.90
52769;DHT22;40471;44.534;18.644;2023-11-19T02:41:10;1.80;99.90
52769;DHT22;40471;44.534;18.644;2023-11-19T02:43:37;1.80;99.90
52769;DHT22;40471;44.534;18.644;2023-11-19T02:46:04;1.90;99.90
52769;DHT22;40471;44.534;18.644;2023-11-19T02:48:34;1.50;99.90
52769;DHT22;40471;44.534;18.644;2023-11-19T03:07:54;1.70;99.90
52769;DHT22;40471;44.534;18.644;2023-11-19T03:10:20;1.80;99.90
52769;DHT22;40471;44.534;18.644;2023-11-19T03:12:46;1.70;99.90
52769;DHT22;40471;44.534;18.644;2023-11-19T03:15:11;1.70;99.90
52769;DHT22;40471;44.534;18.644;2023-11-19T03:17:42;1.80;99.90
52769;DHT22;40471;44.534;18.644;2023-11-19T03:20:13;1.80;99.90
52769;DHT22;40471;44.534;18.644;2023-11-19T03:22:42;1.70;99.90
52769;DHT22;40471;44.534;18.644;2023-11-19T03:25:08;1.70;99.90
52769;DHT22;40471;44.534;18.644;2023-11-19T03:27:38;1.70;99.90
52769;DHT22;40471;44.534;18.644;2023-11-19T03:46:54;1.50;99.90
52769;DHT22;40471;44.534;18.644;2023-11-19T03:49:20;1.50;99.90
52769;DHT22;40471;44.534;18.644;2023-11-19T03:51:46;1.50;99.90
52769;DHT22;40471;44.534;18.644;2023-11-19T03:54:12;1.50;99.90
52769;DHT22;40471;44.534;18.644;2023-11-19T03:56:38;1.50;99.90
52769;DHT22;40471;44.534;18.644;2023-11-19T03:59:03;1.50;99.90
52769;DHT22;40471;44.534;18.644;2023-11-19T04:01:29;1.50;99.90
52769;DHT22;40471;44.534;18.644;2023-11-19T04:03:55;1.40;99.90
52769;DHT22;40471;44.534;18.644;2023-11-19T04:23:13;1.30;99.90
52769;DHT22;40471;44.534;18.644;2023-11-19T04:25:38;1.40;99.90
52769;DHT22;40471;44.534;18.644;2023-11-19T04:28:04;1.40;99.90
52769;DHT22;40471;44.534;18.644;2023-11-19T04:30:30;1.40;99.90
52769;DHT22;40471;44.534;18.644;2023-11-19T04:32:57;1.40;99.90
52769;DHT22;40471;44.534;18.644;2023-11-19T04:35:23;1.30;99.90
52769;DHT22;40471;44.534;18.644;2023-11-19T04:37:49;1.30;99.90
52769;DHT22;40471;44.534;18.644;2023-11-19T04:40:15;1.30;99.90
52769;DHT22;40471;44.534;18.644;2023-11-19T04:42:40;1.30;99.90
52769;DHT22;40471;44.534;18.644;2023-11-19T05:01:56;1.20;99.90
52769;DHT22;40471;44.534;18.644;2023-11-19T05:04:21;1.20;99.90
52769;DHT22;40471;44.534;18.644;2023-11-19T05:06:47;1.20;99.90
52769;DHT22;40471;44.534;18.644;2023-11-19T05:09:13;1.20;99.90
52769;DHT22;40471;44.534;18.644;2023-11-19T05:11:39;1.20;99.90
52769;DHT22;40471;44.534;18.644;2023-11-19T05:14:05;1.20;99.90
52769;DHT22;40471;44.534;18.644;2023-11-19T05:16:31;1.30;99.90
52769;DHT22;40471;44.534;18.644;2023-11-19T05:18:58;1.30;99.90
52769;DHT22;40471;44.534;18.644;2023-11-19T05:21:24;1.30;99.90
52769;DHT22;40471;44.534;18.644;2023-11-19T05:40:41;1.30;99.90
52769;DHT22;40471;44.534;18.644;2023-11-19T05:43:07;1.50;99.90
52769;DHT22;40471;44.534;18.644;2023-11-19T05:45:33;1.40;99.90
52769;DHT22;40471;44.534;18.644;2023-11-19T05:47:59;1.30;99.90
52769;DHT22;40471;44.534;18.644;2023-11-19T05:50:25;1.30;99.90
52769;DHT22;40471;44.534;18.644;2023-11-19T05:52:50;1.40;99.90
52769;DHT22;40471;44.534;18.644;2023-11-19T05:55:18;1.50;99.90
52769;DHT22;40471;44.534;18.644;2023-11-19T05:57:45;1.30;99.90
52769;DHT22;40471;44.534;18.644;2023-11-19T06:17:01;2.00;99.90
52769;DHT22;40471;44.534;18.644;2023-11-19T06:19:27;2.20;99.90
52769;DHT22;40471;44.534;18.644;2023-11-19T06:21:53;2.40;99.90
52769;DHT22;40471;44.534;18.644;2023-11-19T06:24:19;2.30;99.90
52769;DHT22;40471;44.534;18.644;2023-11-19T06:26:45;2.60;99.90
52769;DHT22;40471;44.534;18.644;2023-11-19T06:29:10;2.80;99.90
52769;DHT22;40471;44.534;18.644;2023-11-19T06:31:36;2.90;99.90
52769;DHT22;40471;44.534;18.644;2023-11-19T06:34:02;3.20;99.90
52769;DHT22;40471;44.534;18.644;2023-11-19T06:36:29;3.30;99.90
52769;DHT22;40471;44.534;18.644;2023-11-19T06:38:54;3.30;99.90
52769;DHT22;40471;44.534;18.644;2023-11-19T06:41:20;3.40;99.90
52769;DHT22;40471;44.534;18.644;2023-11-19T06:43:50;3.50;99.90
52769;DHT22;40471;44.534;18.644;2023-11-19T06:46:16;3.80;99.90
52769;DHT22;40471;44.534;18.644;2023-11-19T06:48:42;4.00;99.90
52769;DHT22;40471;44.534;18.644;2023-11-19T06:51:10;4.30;99.90
52769;DHT22;40471;44.534;18.644;2023-11-19T06:53:35;4.40;99.90
52769;DHT22;40471;44.534;18.644;2023-11-19T06:56:02;4.40;99.90
52769;DHT22;40471;44.534;18.644;2023-11-19T06:58:32;4.30;99.90
52769;DHT22;40471;44.534;18.644;2023-11-19T07:01:00;4.30;99.90
52769;DHT22;40471;44.534;18.644;2023-11-19T07:03:28;4.40;99.90
52769;DHT22;40471;44.534;18.644;2023-11-19T07:05:53;4.40;99.90
52769;DHT22;40471;44.534;18.644;2023-11-19T07:08:21;4.50;99.90
52769;DHT22;40471;44.534;18.644;2023-11-19T07:10:46;4.50;99.90
52769;DHT22;40471;44.534;18.644;2023-11-19T07:13:12;4.50;99.90
52769;DHT22;40471;44.534;18.644;2023-11-19T07:15:42;4.60;99.90
52769;DHT22;40471;44.534;18.644;2023-11-19T07:18:08;4.70;99.90
52769;DHT22;40471;44.534;18.644;2023-11-19T07:20:33;4.70;99.90
52769;DHT22;40471;44.534;18.644;2023-11-19T07:22:59;4.80;99.90
52769;DHT22;40471;44.534;18.644;2023-11-19T07:25:25;4.80;99.90
52769;DHT22;40471;44.534;18.644;2023-11-19T07:27:52;4.90;99.90
52769;DHT22;40471;44.534;18.644;2023-11-19T07:30:18;4.90;99.90
52769;DHT22;40471;44.534;18.644;2023-11-19T07:32:44;4.90;99.90
52769;DHT22;40471;44.534;18.644;2023-11-19T07:35:09;4.90;99.90
52769;DHT22;40471;44.534;18.644;2023-11-19T07:37:35;5.00;99.90
52769;DHT22;40471;44.534;18.644;2023-11-19T07:40:01;5.10;99.90
52769;DHT22;40471;44.534;18.644;2023-11-19T07:42:27;5.20;99.90
52769;DHT22;40471;44.534;18.644;2023-11-19T07:44:52;5.30;99.90
52769;DHT22;40471;44.534;18.644;2023-11-19T07:47:20;5.50;99.90
52769;DHT22;40471;44.534;18.644;2023-11-19T07:49:49;5.60;99.90
52769;DHT22;40471;44.534;18.644;2023-11-19T07:52:15;5.90;99.90
52769;DHT22;40471;44.534;18.644;2023-11-19T07:54:41;6.00;99.90
52769;DHT22;40471;44.534;18.644;2023-11-19T07:59:52;6.20;99.90
52769;DHT22;40471;44.534;18.644;2023-11-19T08:02:17;6.40;99.90
52769;DHT22;40471;44.534;18.644;2023-11-19T08:04:44;6.40;99.90
52769;DHT22;40471;44.534;18.644;2023-11-19T08:07:11;6.50;99.90
52769;DHT22;40471;44.534;18.644;2023-11-19T08:09:37;6.60;99.90
52769;DHT22;40471;44.534;18.644;2023-11-19T08:12:03;6.80;99.90
52769;DHT22;40471;44.534;18.644;2023-11-19T08:14:29;6.90;99.90
52769;DHT22;40471;44.534;18.644;2023-11-19T08:16:56;7.10;99.90
52769;DHT22;40471;44.534;18.644;2023-11-19T08:19:22;7.60;99.90
52769;DHT22;40471;44.534;18.644;2023-11-19T08:21:48;7.70;99.90
52769;DHT22;40471;44.534;18.644;2023-11-19T08:24:14;7.60;99.90
52769;DHT22;40471;44.534;18.644;2023-11-19T08:26:40;7.80;99.90
52769;DHT22;40471;44.534;18.644;2023-11-19T08:29:10;8.20;99.90
52769;DHT22;40471;44.534;18.644;2023-11-19T08:31:35;8.00;99.90
52769;DHT22;40471;44.534;18.644;2023-11-19T08:34:01;8.00;99.90
52769;DHT22;40471;44.534;18.644;2023-11-19T08:36:28;8.20;99.90
52769;DHT22;40471;44.534;18.644;2023-11-19T08:38:54;8.40;99.90
52769;DHT22;40471;44.534;18.644;2023-11-19T08:41:21;8.90;99.90
52769;DHT22;40471;44.534;18.644;2023-11-19T08:43:47;9.20;99.90
52769;DHT22;40471;44.534;18.644;2023-11-19T08:46:13;8.40;99.90
52769;DHT22;40471;44.534;18.644;2023-11-19T08:48:39;9.10;99.90
52769;DHT22;40471;44.534;18.644;2023-11-19T08:51:05;9.10;99.90
52769;DHT22;40471;44.534;18.644;2023-11-19T08:53:31;9.00;99.90
52769;DHT22;40471;44.534;18.644;2023-11-19T08:55:57;9.00;99.90
52769;DHT22;40471;44.534;18.644;2023-11-19T08:58:23;9.00;99.90
52769;DHT22;40471;44.534;18.644;2023-11-19T09:00:49;9.20;99.90
52769;DHT22;40471;44.534;18.644;2023-11-19T09:03:15;9.00;99.90
52769;DHT22;40471;44.534;18.644;2023-11-19T09:05:41;9.20;99.90
52769;DHT22;40471;44.534;18.644;2023-11-19T09:08:07;7.70;99.90
52769;DHT22;40471;44.534;18.644;2023-11-19T09:10:33;8.90;99.90
52769;DHT22;40471;44.534;18.644;2023-11-19T09:12:59;8.80;99.90
52769;DHT22;40471;44.534;18.644;2023-11-19T09:15:25;8.70;99.90
52769;DHT22;40471;44.534;18.644;2023-11-19T09:17:51;8.70;99.90
52769;DHT22;40471;44.534;18.644;2023-11-19T09:20:17;8.60;99.90
52769;DHT22;40471;44.534;18.644;2023-11-19T09:22:43;8.80;99.90
52769;DHT22;40471;44.534;18.644;2023-11-19T09:25:08;8.90;99.90
52769;DHT22;40471;44.534;18.644;2023-11-19T09:27:34;8.90;99.90
52769;DHT22;40471;44.534;18.644;2023-11-19T09:30:00;8.80;99.90
52769;DHT22;40471;44.534;18.644;2023-11-19T09:32:26;8.60;99.90
52769;DHT22;40471;44.534;18.644;2023-11-19T09:34:52;8.70;99.90
52769;DHT22;40471;44.534;18.644;2023-11-19T09:37:18;8.80;99.90
52769;DHT22;40471;44.534;18.644;2023-11-19T09:39:44;8.80;99.90
52769;DHT22;40471;44.534;18.644;2023-11-19T09:42:10;8.80;99.90
52769;DHT22;40471;44.534;18.644;2023-11-19T09:44:38;8.60;99.90
52769;DHT22;40471;44.534;18.644;2023-11-19T09:47:08;9.40;99.90
52769;DHT22;40471;44.534;18.644;2023-11-19T09:49:37;10.00;99.90
52769;DHT22;40471;44.534;18.644;2023-11-19T09:55:00;10.10;99.90
52769;DHT22;40471;44.534;18.644;2023-11-19T09:57:27;10.30;99.90
52769;DHT22;40471;44.534;18.644;2023-11-19T09:59:57;11.20;99.90
52769;DHT22;40471;44.534;18.644;2023-11-19T10:02:24;11.60;99.90
52769;DHT22;40471;44.534;18.644;2023-11-19T10:04:50;12.10;98.70
52769;DHT22;40471;44.534;18.644;2023-11-19T10:07:16;11.70;96.70
52769;DHT22;40471;44.534;18.644;2023-11-19T10:09:42;12.30;93.90
52769;DHT22;40471;44.534;18.644;2023-11-19T10:12:08;12.40;93.40
52769;DHT22;40471;44.534;18.644;2023-11-19T10:14:35;13.50;91.50
52769;DHT22;40471;44.534;18.644;2023-11-19T10:17:03;13.40;90.40
52769;DHT22;40471;44.534;18.644;2023-11-19T10:19:29;13.90;91.40
52769;DHT22;40471;44.534;18.644;2023-11-19T10:22:04;14.80;87.60
52769;DHT22;40471;44.534;18.644;2023-11-19T10:24:34;15.10;90.30
52769;DHT22;40471;44.534;18.644;2023-11-19T10:27:03;15.50;87.90
52769;DHT22;40471;44.534;18.644;2023-11-19T10:29:36;16.00;87.60
52769;DHT22;40471;44.534;18.644;2023-11-19T10:32:03;16.20;81.60
52769;DHT22;40471;44.534;18.644;2023-11-19T10:34:29;16.50;75.10
52769;DHT22;40471;44.534;18.644;2023-11-19T10:36:55;16.90;72.00
52769;DHT22;40471;44.534;18.644;2023-11-19T10:39:21;16.90;79.20
52769;DHT22;40471;44.534;18.644;2023-11-19T10:41:49;16.70;69.50
52769;DHT22;40471;44.534;18.644;2023-11-19T10:44:48;16.40;66.70
52769;DHT22;40471;44.534;18.644;2023-11-19T10:57:25;16.50;66.50
52769;DHT22;40471;44.534;18.644;2023-11-19T11:00:00;16.50;68.90
52769;DHT22;40471;44.534;18.644;2023-11-19T11:02:27;16.00;68.90
52769;DHT22;40471;44.534;18.644;2023-11-19T11:04:54;15.80;69.50
52769;DHT22;40471;44.534;18.644;2023-11-19T11:07:21;16.20;68.60
52769;DHT22;40471;44.534;18.644;2023-11-19T11:09:51;16.00;69.20
52769;DHT22;40471;44.534;18.644;2023-11-19T11:12:21;16.10;77.70
52769;DHT22;40471;44.534;18.644;2023-11-19T11:14:49;16.30;74.70
52769;DHT22;40471;44.534;18.644;2023-11-19T11:17:17;16.70;72.30
52769;DHT22;40471;44.534;18.644;2023-11-19T11:19:44;16.50;73.30
52769;DHT22;40471;44.534;18.644;2023-11-19T11:22:11;16.30;74.10
52769;DHT22;40471;44.534;18.644;2023-11-19T11:27:21;17.60;72.10
52769;DHT22;40471;44.534;18.644;2023-11-19T11:30:23;17.50;67.90
52769;DHT22;40471;44.534;18.644;2023-11-19T11:33:34;18.00;70.30
52769;DHT22;40471;44.534;18.644;2023-11-19T11:38:38;18.10;61.20
52769;DHT22;40471;44.534;18.644;2023-11-19T11:41:22;18.40;66.00
52769;DHT22;40471;44.534;18.644;2023-11-19T11:43:55;18.60;64.50
52769;DHT22;40471;44.534;18.644;2023-11-19T11:49:05;18.70;58.60
52769;DHT22;40471;44.534;18.644;2023-11-19T11:51:57;19.50;57.80
52769;DHT22;40471;44.534;18.644;2023-11-19T11:57:12;19.00;54.80
52769;DHT22;40471;44.534;18.644;2023-11-19T12:02:12;20.20;57.50
52769;DHT22;40471;44.534;18.644;2023-11-19T12:04:39;20.00;59.00
52769;DHT22;40471;44.534;18.644;2023-11-19T12:07:08;20.00;55.80
52769;DHT22;40471;44.534;18.644;2023-11-19T12:09:36;20.20;50.70
52769;DHT22;40471;44.534;18.644;2023-11-19T12:12:28;20.20;51.50
52769;DHT22;40471;44.534;18.644;2023-11-19T12:20:05;20.30;49.00
52769;DHT22;40471;44.534;18.644;2023-11-19T12:22:41;20.00;50.40
52769;DHT22;40471;44.534;18.644;2023-11-19T12:25:08;19.90;50.90
52769;DHT22;40471;44.534;18.644;2023-11-19T12:27:42;19.70;52.50
52769;DHT22;40471;44.534;18.644;2023-11-19T12:30:08;19.60;51.10
52769;DHT22;40471;44.534;18.644;2023-11-19T12:32:44;19.10;52.50
52769;DHT22;40471;44.534;18.644;2023-11-19T12:35:11;18.90;53.60
52769;DHT22;40471;44.534;18.644;2023-11-19T12:37:45;18.80;53.30
52769;DHT22;40471;44.534;18.644;2023-11-19T12:40:17;18.50;53.50
52769;DHT22;40471;44.534;18.644;2023-11-19T12:42:46;18.30;54.40
52769;DHT22;40471;44.534;18.644;2023-11-19T12:45:13;18.20;54.50
52769;DHT22;40471;44.534;18.644;2023-11-19T12:47:45;18.10;54.10
52769;DHT22;40471;44.534;18.644;2023-11-19T12:50:13;17.80;52.00
52769;DHT22;40471;44.534;18.644;2023-11-19T12:52:39;17.80;53.40
52769;DHT22;40471;44.534;18.644;2023-11-19T12:55:27;17.60;53.40
52769;DHT22;40471;44.534;18.644;2023-11-19T12:57:52;17.40;54.40
52769;DHT22;40471;44.534;18.644;2023-11-19T13:00:21;17.30;54.30
52769;DHT22;40471;44.534;18.644;2023-11-19T13:02:56;17.10;54.80
52769;DHT22;40471;44.534;18.644;2023-11-19T13:05:29;17.00;55.30
52769;DHT22;40471;44.534;18.644;2023-11-19T13:08:05;16.90;55.90
52769;DHT22;40471;44.534;18.644;2023-11-19T13:13:19;17.00;55.70
52769;DHT22;40471;44.534;18.644;2023-11-19T13:15:45;16.80;55.40
52769;DHT22;40471;44.534;18.644;2023-11-19T13:18:11;16.70;55.80
52769;DHT22;40471;44.534;18.644;2023-11-19T13:20:39;16.60;56.70
52769;DHT22;40471;44.534;18.644;2023-11-19T13:23:06;16.60;57.40
52769;DHT22;40471;44.534;18.644;2023-11-19T13:25:36;16.60;56.60
52769;DHT22;40471;44.534;18.644;2023-11-19T13:28:02;16.70;56.00
52769;DHT22;40471;44.534;18.644;2023-11-19T13:30:28;16.50;56.90
52769;DHT22;40471;44.534;18.644;2023-11-19T13:32:55;16.30;58.30
52769;DHT22;40471;44.534;18.644;2023-11-19T13:35:22;16.20;59.30
52769;DHT22;40471;44.534;18.644;2023-11-19T13:37:53;16.10;58.90
52769;DHT22;40471;44.534;18.644;2023-11-19T13:40:19;15.90;59.40
52769;DHT22;40471;44.534;18.644;2023-11-19T13:42:45;15.70;60.00
52769;DHT22;40471;44.534;18.644;2023-11-19T13:45:12;15.60;60.80
52769;DHT22;40471;44.534;18.644;2023-11-19T13:47:42;15.50;61.30
52769;DHT22;40471;44.534;18.644;2023-11-19T13:50:10;15.40;61.30
52769;DHT22;40471;44.534;18.644;2023-11-19T13:52:40;15.40;61.60
52769;DHT22;40471;44.534;18.644;2023-11-19T13:55:09;15.30;61.70
52769;DHT22;40471;44.534;18.644;2023-11-19T13:57:39;15.30;61.70
52769;DHT22;40471;44.534;18.644;2023-11-19T14:00:10;15.30;62.00
52769;DHT22;40471;44.534;18.644;2023-11-19T14:02:39;15.20;63.40
52769;DHT22;40471;44.534;18.644;2023-11-19T14:05:06;15.10;64.30
52769;DHT22;40471;44.534;18.644;2023-11-19T14:07:33;14.90;64.70
52769;DHT22;40471;44.534;18.644;2023-11-19T14:09:59;14.90;64.50
52769;DHT22;40471;44.534;18.644;2023-11-19T14:12:25;14.70;65.40
52769;DHT22;40471;44.534;18.644;2023-11-19T14:14:51;14.90;66.70
52769;DHT22;40471;44.534;18.644;2023-11-19T14:17:17;14.90;68.60
52769;DHT22;40471;44.534;18.644;2023-11-19T14:19:44;14.80;68.90
52769;DHT22;40471;44.534;18.644;2023-11-19T14:22:10;14.60;70.00
52769;DHT22;40471;44.534;18.644;2023-11-19T14:24:37;14.50;70.40
52769;DHT22;40471;44.534;18.644;2023-11-19T14:27:03;14.30;71.20
52769;DHT22;40471;44.534;18.644;2023-11-19T14:29:28;14.10;71.80
52769;DHT22;40471;44.534;18.644;2023-11-19T14:31:56;13.90;73.10
52769;DHT22;40471;44.534;18.644;2023-11-19T14:34:22;13.60;74.50
52769;DHT22;40471;44.534;18.644;2023-11-19T14:36:48;13.40;75.90
52769;DHT22;40471;44.534;18.644;2023-11-19T14:39:15;13.10;76.70
52769;DHT22;40471;44.534;18.644;2023-11-19T14:41:42;13.00;77.90
52769;DHT22;40471;44.534;18.644;2023-11-19T14:44:07;12.90;78.70
52769;DHT22;40471;44.534;18.644;2023-11-19T14:46:35;12.90;79.00
52769;DHT22;40471;44.534;18.644;2023-11-19T14:49:01;13.00;79.20
52769;DHT22;40471;44.534;18.644;2023-11-19T14:51:27;13.10;79.30
52769;DHT22;40471;44.534;18.644;2023-11-19T14:53:52;13.00;80.10
52769;DHT22;40471;44.534;18.644;2023-11-19T14:56:18;13.00;82.10
52769;DHT22;40471;44.534;18.644;2023-11-19T14:58:44;12.90;84.00
52769;DHT22;40471;44.534;18.644;2023-11-19T15:01:13;12.80;85.60
52769;DHT22;40471;44.534;18.644;2023-11-19T15:03:39;12.70;85.90
52769;DHT22;40471;44.534;18.644;2023-11-19T15:06:06;12.60;86.20
52769;DHT22;40471;44.534;18.644;2023-11-19T15:08:32;12.50;86.50
52769;DHT22;40471;44.534;18.644;2023-11-19T15:10:58;12.40;88.70
52769;DHT22;40471;44.534;18.644;2023-11-19T15:13:25;12.30;89.30
52769;DHT22;40471;44.534;18.644;2023-11-19T15:15:51;12.20;89.70
52769;DHT22;40471;44.534;18.644;2023-11-19T15:18:18;12.10;90.20
52769;DHT22;40471;44.534;18.644;2023-11-19T15:20:44;12.00;91.00
52769;DHT22;40471;44.534;18.644;2023-11-19T15:23:13;12.00;92.00
52769;DHT22;40471;44.534;18.644;2023-11-19T15:26:07;11.60;92.90
52769;DHT22;40471;44.534;18.644;2023-11-19T15:28:36;11.50;94.30
52769;DHT22;40471;44.534;18.644;2023-11-19T15:31:02;11.30;95.10
52769;DHT22;40471;44.534;18.644;2023-11-19T15:33:28;11.30;95.90
52769;DHT22;40471;44.534;18.644;2023-11-19T15:35:54;11.10;98.00
52769;DHT22;40471;44.534;18.644;2023-11-19T15:38:20;11.00;99.90
52769;DHT22;40471;44.534;18.644;2023-11-19T15:40:45;10.80;99.90
52769;DHT22;40471;44.534;18.644;2023-11-19T15:43:11;10.60;99.90
52769;DHT22;40471;44.534;18.644;2023-11-19T15:45:37;10.50;99.90
52769;DHT22;40471;44.534;18.644;2023-11-19T15:48:05;10.50;99.90
52769;DHT22;40471;44.534;18.644;2023-11-19T15:50:31;10.40;99.90
52769;DHT22;40471;44.534;18.644;2023-11-19T15:52:57;10.40;99.90
52769;DHT22;40471;44.534;18.644;2023-11-19T15:55:24;10.40;99.90
52769;DHT22;40471;44.534;18.644;2023-11-19T15:57:50;10.30;99.90
52769;DHT22;40471;44.534;18.644;2023-11-19T16:00:16;10.20;99.90
52769;DHT22;40471;44.534;18.644;2023-11-19T16:02:43;10.00;99.90
52769;DHT22;40471;44.534;18.644;2023-11-19T16:05:08;9.90;99.90
52769;DHT22;40471;44.534;18.644;2023-11-19T16:07:35;9.90;99.90
52769;DHT22;40471;44.534;18.644;2023-11-19T16:10:01;9.80;99.90
52769;DHT22;40471;44.534;18.644;2023-11-19T16:12:30;9.70;99.90
52769;DHT22;40471;44.534;18.644;2023-11-19T16:14:55;9.70;99.90
52769;DHT22;40471;44.534;18.644;2023-11-19T16:17:21;9.70;99.90
52769;DHT22;40471;44.534;18.644;2023-11-19T16:19:49;9.60;99.90
52769;DHT22;40471;44.534;18.644;2023-11-19T16:22:14;9.40;99.90
52769;DHT22;40471;44.534;18.644;2023-11-19T16:24:40;9.30;99.90
52769;DHT22;40471;44.534;18.644;2023-11-19T16:27:06;9.20;99.90
52769;DHT22;40471;44.534;18.644;2023-11-19T16:29:33;9.10;99.90
52769;DHT22;40471;44.534;18.644;2023-11-19T16:31:59;9.10;99.90
52769;DHT22;40471;44.534;18.644;2023-11-19T16:34:25;9.10;99.90
52769;DHT22;40471;44.534;18.644;2023-11-19T16:36:50;9.00;99.90
52769;DHT22;40471;44.534;18.644;2023-11-19T16:39:16;9.00;99.90
52769;DHT22;40471;44.534;18.644;2023-11-19T16:41:42;8.90;99.90
52769;DHT22;40471;44.534;18.644;2023-11-19T16:44:08;8.70;99.90
52769;DHT22;40471;44.534;18.644;2023-11-19T16:46:34;8.60;99.90
52769;DHT22;40471;44.534;18.644;2023-11-19T16:49:00;8.50;99.90
52769;DHT22;40471;44.534;18.644;2023-11-19T16:51:25;8.40;99.90
52769;DHT22;40471;44.534;18.644;2023-11-19T16:53:51;8.30;99.90
52769;DHT22;40471;44.534;18.644;2023-11-19T16:56:18;8.30;99.90
52769;DHT22;40471;44.534;18.644;2023-11-19T16:58:45;8.20;99.90
52769;DHT22;40471;44.534;18.644;2023-11-19T17:01:12;8.20;99.90
52769;DHT22;40471;44.534;18.644;2023-11-19T17:03:43;8.20;99.90
52769;DHT22;40471;44.534;18.644;2023-11-19T17:06:09;8.00;99.90
52769;DHT22;40471;44.534;18.644;2023-11-19T17:08:35;8.00;99.90
52769;DHT22;40471;44.534;18.644;2023-11-19T17:11:04;7.90;99.90
52769;DHT22;40471;44.534;18.644;2023-11-19T17:13:34;7.90;99.90
52769;DHT22;40471;44.534;18.644;2023-11-19T17:16:00;7.90;99.90
52769;DHT22;40471;44.534;18.644;2023-11-19T17:18:26;7.80;99.90
52769;DHT22;40471;44.534;18.644;2023-11-19T17:20:52;7.70;99.90
52769;DHT22;40471;44.534;18.644;2023-11-19T17:23:21;7.70;99.90
52769;DHT22;40471;44.534;18.644;2023-11-19T17:25:47;7.60;99.90
52769;DHT22;40471;44.534;18.644;2023-11-19T17:28:13;7.50;99.90
52769;DHT22;40471;44.534;18.644;2023-11-19T17:30:39;7.50;99.90
52769;DHT22;40471;44.534;18.644;2023-11-19T17:33:05;7.40;99.90
52769;DHT22;40471;44.534;18.644;2023-11-19T17:35:34;7.40;99.90
52769;DHT22;40471;44.534;18.644;2023-11-19T17:38:00;7.30;99.90
52769;DHT22;40471;44.534;18.644;2023-11-19T17:40:26;7.30;99.90
52769;DHT22;40471;44.534;18.644;2023-11-19T17:42:53;7.20;99.90
52769;DHT22;40471;44.534;18.644;2023-11-19T17:45:19;7.10;99.90
52769;DHT22;40471;44.534;18.644;2023-11-19T17:47:44;7.20;99.90
52769;DHT22;40471;44.534;18.644;2023-11-19T17:50:10;7.20;99.90
52769;DHT22;40471;44.534;18.644;2023-11-19T17:52:37;7.20;99.90
52769;DHT22;40471;44.534;18.644;2023-11-19T17:55:03;7.10;99.90
52769;DHT22;40471;44.534;18.644;2023-11-19T17:57:30;7.20;99.90
52769;DHT22;40471;44.534;18.644;2023-11-19T17:59:56;7.00;99.90
52769;DHT22;40471;44.534;18.644;2023-11-19T18:02:23;6.90;99.90
52769;DHT22;40471;44.534;18.644;2023-11-19T18:04:49;6.80;99.90
52769;DHT22;40471;44.534;18.644;2023-11-19T18:07:17;6.80;99.90
52769;DHT22;40471;44.534;18.644;2023-11-19T18:09:43;6.80;99.90
52769;DHT22;40471;44.534;18.644;2023-11-19T18:12:10;6.70;99.90
52769;DHT22;40471;44.534;18.644;2023-11-19T18:14:42;6.70;99.90
52769;DHT22;40471;44.534;18.644;2023-11-19T18:17:07;6.70;99.90
52769;DHT22;40471;44.534;18.644;2023-11-19T18:19:36;6.70;99.90
52769;DHT22;40471;44.534;18.644;2023-11-19T18:22:05;6.60;99.90
52769;DHT22;40471;44.534;18.644;2023-11-19T18:24:31;6.50;99.90
52769;DHT22;40471;44.534;18.644;2023-11-19T18:26:57;6.50;99.90
52769;DHT22;40471;44.534;18.644;2023-11-19T18:29:23;6.40;99.90
52769;DHT22;40471;44.534;18.644;2023-11-19T18:31:49;6.40;99.90
52769;DHT22;40471;44.534;18.644;2023-11-19T18:34:15;6.40;99.90
52769;DHT22;40471;44.534;18.644;2023-11-19T18:36:41;6.30;99.90
52769;DHT22;40471;44.534;18.644;2023-11-19T18:39:07;6.30;99.90
52769;DHT22;40471;44.534;18.644;2023-11-19T18:41:35;6.30;99.90
52769;DHT22;40471;44.534;18.644;2023-11-19T18:44:01;6.20;99.90
52769;DHT22;40471;44.534;18.644;2023-11-19T18:46:28;6.30;99.90
52769;DHT22;40471;44.534;18.644;2023-11-19T18:48:54;6.20;99.90
52769;DHT22;40471;44.534;18.644;2023-11-19T18:51:20;6.20;99.90